Time;durP1;ratioP1;P1;durP2;ratioP2;P2;SDS_P1;SDS_P2;PMS_P1;PMS_P2;Temp;Humidity;BMP_temperature;BMP_pressure;BME280_temperature;BME280_humidity;BME280_pressure;Samples;Min_cycle;Max_cycle;Signal;HPM_P1;HPM_P2
2023/12/07 00:00:32;;;;;;;16.55;9.43;;;3.60;99.90;;;;;;4952951;28;20038;-46
2023/12/07 00:02:57;;;;;;;12.77;8.88;;;3.70;99.90;;;;;;4952795;29;20023;-45
2023/12/07 00:05:23;;;;;;;14.95;10.02;;;3.80;99.90;;;;;;4935825;29;20399;-46
2023/12/07 00:07:48;;;;;;;15.00;10.07;;;3.80;99.90;;;;;;4952991;29;20509;-45
2023/12/07 00:10:14;;;;;;;18.65;9.20;;;3.70;99.90;;;;;;4952915;28;20031;-47
2023/12/07 00:12:40;;;;;;;16.88;9.23;;;3.60;99.90;;;;;;4952647;28;20025;-45
2023/12/07 00:15:06;;;;;;;13.63;8.75;;;3.40;99.90;;;;;;4952909;28;20043;-46
2023/12/07 00:17:32;;;;;;;14.80;8.82;;;3.30;99.90;;;;;;4952927;29;20096;-53
2023/12/07 00:19:57;;;;;;;16.63;9.68;;;3.20;99.90;;;;;;4952722;28;20027;-42
2023/12/07 00:22:24;;;;;;;16.77;10.18;;;3.20;99.90;;;;;;4952214;29;20110;-43
2023/12/07 00:24:50;;;;;;;13.50;9.55;;;3.30;99.90;;;;;;4953376;28;20059;-45
2023/12/07 00:27:15;;;;;;;13.23;9.82;;;3.30;99.90;;;;;;4952636;29;20431;-44
2023/12/07 00:29:41;;;;;;;14.70;9.52;;;3.40;99.90;;;;;;4953101;29;20478;-45
2023/12/07 00:32:06;;;;;;;18.05;10.25;;;3.30;99.90;;;;;;4952167;29;20402;-45
2023/12/07 00:34:31;;;;;;;15.93;10.20;;;3.10;99.90;;;;;;4952586;29;20035;-45
2023/12/07 00:36:57;;;;;;;17.23;10.65;;;3.10;99.90;;;;;;4952419;28;20051;-43
2023/12/07 00:39:22;;;;;;;16.67;10.27;;;3.10;99.90;;;;;;4935286;29;20049;-43
2023/12/07 00:41:48;;;;;;;18.80;11.05;;;3.00;99.90;;;;;;4952237;29;20034;-43
2023/12/07 00:44:14;;;;;;;21.80;11.15;;;3.00;99.90;;;;;;4952436;29;20055;-43
2023/12/07 00:46:40;;;;;;;20.05;11.30;;;3.00;99.90;;;;;;4952515;29;20502;-43
2023/12/07 00:49:05;;;;;;;14.40;9.77;;;3.00;99.90;;;;;;4952389;29;20450;-44
2023/12/07 00:51:31;;;;;;;15.45;9.88;;;3.00;99.90;;;;;;4952066;28;20110;-42
2023/12/07 00:53:57;;;;;;;15.38;10.07;;;2.90;99.90;;;;;;4952959;29;20050;-43
2023/12/07 00:56:22;;;;;;;21.73;11.55;;;2.90;99.90;;;;;;4952114;29;20047;-44
2023/12/07 00:58:48;;;;;;;13.65;10.27;;;2.80;99.90;;;;;;4952163;29;20035;-42
2023/12/07 01:01:13;;;;;;;31.17;20.58;;;2.80;99.90;;;;;;4952363;29;20027;-42
2023/12/07 01:03:40;;;;;;;33.95;20.95;;;2.80;99.90;;;;;;4952114;29;20027;-43
2023/12/07 01:06:06;;;;;;;22.88;14.65;;;2.70;99.90;;;;;;4952303;28;20030;-43
2023/12/07 01:08:32;;;;;;;16.73;10.23;;;2.70;99.90;;;;;;4952034;29;20024;-48
2023/12/07 01:10:58;;;;;;;14.57;9.27;;;2.70;99.90;;;;;;4934888;29;20025;-46
2023/12/07 01:13:23;;;;;;;14.05;9.60;;;2.50;99.90;;;;;;4951870;28;20027;-45
2023/12/07 01:15:49;;;;;;;11.95;9.27;;;2.70;99.90;;;;;;4952059;28;20133;-42
2023/12/07 01:18:15;;;;;;;16.45;10.45;;;2.60;99.90;;;;;;4952074;28;20057;-42
2023/12/07 01:20:41;;;;;;;16.08;10.70;;;2.60;99.90;;;;;;4951889;29;20487;-42
2023/12/07 01:23:08;;;;;;;15.93;9.90;;;2.50;99.90;;;;;;4951352;29;20027;-45
2023/12/07 01:25:34;;;;;;;15.05;10.48;;;2.50;99.90;;;;;;4952203;29;20019;-39
2023/12/07 01:27:59;;;;;;;14.13;9.82;;;2.40;99.90;;;;;;4951896;29;20038;-46
2023/12/07 01:30:25;;;;;;;15.85;10.52;;;2.40;99.90;;;;;;4951777;28;20426;-45
2023/12/07 01:32:51;;;;;;;20.30;11.15;;;2.40;99.90;;;;;;4951345;29;20097;-42
2023/12/07 01:35:16;;;;;;;14.80;10.15;;;2.40;99.90;;;;;;4951981;28;20031;-42
2023/12/07 01:37:42;;;;;;;21.08;10.65;;;2.40;99.90;;;;;;4951546;29;20038;-41
2023/12/07 01:40:10;;;;;;;14.65;10.05;;;2.40;99.90;;;;;;4951619;29;20031;-45
2023/12/07 01:42:39;;;;;;;18.38;11.27;;;2.50;99.90;;;;;;4951296;29;20027;-43
2023/12/07 01:45:06;;;;;;;22.23;11.38;;;2.60;99.90;;;;;;4951494;29;20039;-43
2023/12/07 01:47:33;;;;;;;17.38;12.00;;;2.70;99.90;;;;;;4951402;29;20376;-45
2023/12/07 01:50:00;;;;;;;17.00;10.85;;;2.70;99.90;;;;;;4951558;29;20027;-45
2023/12/07 01:52:29;;;;;;;18.40;11.55;;;2.70;99.90;;;;;;4951436;28;20674;-42
2023/12/07 01:54:54;;;;;;;15.05;9.95;;;2.70;99.90;;;;;;4966558;28;20498;-45
2023/12/07 01:57:20;;;;;;;17.33;10.55;;;2.70;99.90;;;;;;4951457;29;20035;-43
2023/12/07 01:59:46;;;;;;;14.40;9.73;;;2.60;99.90;;;;;;4951341;28;20031;-45
2023/12/07 02:02:12;;;;;;;13.90;9.70;;;2.60;99.90;;;;;;4950922;28;20031;-43
2023/12/07 02:04:38;;;;;;;11.82;8.70;;;2.60;99.90;;;;;;4951406;29;20034;-43
2023/12/07 02:07:04;;;;;;;19.40;12.95;;;2.50;99.90;;;;;;4951318;28;20031;-45
2023/12/07 02:09:30;;;;;;;17.88;10.77;;;2.50;99.90;;;;;;4951334;29;20472;-43
2023/12/07 02:11:55;;;;;;;14.90;10.85;;;2.50;99.90;;;;;;4950926;29;20283;-42
2023/12/07 02:14:21;;;;;;;21.33;11.57;;;2.50;99.90;;;;;;4951111;29;20396;-47
2023/12/07 02:16:57;;;;;;;16.38;10.77;;;2.50;99.90;;;;;;4951172;29;20511;-43
2023/12/07 02:19:35;;;;;;;18.02;11.48;;;2.50;99.90;;;;;;4950926;29;20023;-42
2023/12/07 02:22:05;;;;;;;22.13;11.70;;;2.40;99.90;;;;;;4950595;29;20031;-46
2023/12/07 02:24:35;;;;;;;16.30;11.13;;;2.40;99.90;;;;;;4950914;29;20051;-47
2023/12/07 02:27:00;;;;;;;15.65;10.45;;;2.40;99.90;;;;;;4951228;28;20111;-46
2023/12/07 02:29:26;;;;;;;15.73;10.73;;;2.40;99.90;;;;;;4950765;29;20553;-43
2023/12/07 02:31:51;;;;;;;18.27;11.40;;;2.40;99.90;;;;;;4933551;29;20027;-42
2023/12/07 02:34:17;;;;;;;22.08;12.00;;;2.30;99.90;;;;;;4950803;29;20536;-42
2023/12/07 02:36:44;;;;;;;18.60;12.90;;;2.40;99.90;;;;;;4950999;28;20032;-42
2023/12/07 02:39:12;;;;;;;21.55;13.57;;;2.40;99.90;;;;;;4950871;29;20148;-47
2023/12/07 02:41:39;;;;;;;17.98;12.65;;;2.50;99.90;;;;;;4950837;28;20024;-42
2023/12/07 02:44:05;;;;;;;22.52;12.98;;;2.50;99.90;;;;;;4950939;29;20070;-42
2023/12/07 02:46:30;;;;;;;18.35;12.50;;;2.50;99.90;;;;;;4950951;29;20038;-43
2023/12/07 02:48:58;;;;;;;19.20;11.57;;;2.50;99.90;;;;;;4950965;29;20417;-43
2023/12/07 02:51:23;;;;;;;18.98;12.18;;;2.50;99.90;;;;;;4951041;29;20046;-43
2023/12/07 02:53:48;;;;;;;18.08;12.48;;;2.50;99.90;;;;;;4951037;29;20541;-43
2023/12/07 02:56:14;;;;;;;13.57;9.77;;;2.40;99.90;;;;;;4950937;29;20107;-42
2023/12/07 02:58:39;;;;;;;17.55;11.70;;;2.40;99.90;;;;;;4951022;29;20031;-42
2023/12/07 03:01:05;;;;;;;16.20;11.15;;;2.30;99.90;;;;;;4950566;29;20047;-42
2023/12/07 03:03:31;;;;;;;15.27;10.18;;;2.30;99.90;;;;;;4950479;29;20031;-44
2023/12/07 03:05:56;;;;;;;19.52;13.02;;;2.20;99.90;;;;;;4933421;29;20046;-45
2023/12/07 03:08:22;;;;;;;21.90;13.57;;;2.20;99.90;;;;;;4950523;28;20483;-47
2023/12/07 03:10:47;;;;;;;16.17;11.10;;;2.10;99.90;;;;;;4950377;29;20546;-44
2023/12/07 03:13:13;;;;;;;18.92;12.38;;;2.20;99.90;;;;;;4950205;29;20114;-42
2023/12/07 03:15:39;;;;;;;22.35;12.80;;;2.10;99.90;;;;;;4953002;29;20035;-42
2023/12/07 03:18:05;;;;;;;23.67;12.63;;;2.10;99.90;;;;;;4953844;29;20032;-42
2023/12/07 03:20:31;;;;;;;19.23;12.52;;;2.10;99.90;;;;;;4936528;28;20542;-39
2023/12/07 03:22:56;;;;;;;15.75;11.73;;;2.10;99.90;;;;;;4953501;28;20115;-43
2023/12/07 03:25:22;;;;;;;25.50;13.45;;;2.00;99.90;;;;;;4953712;29;20065;-43
2023/12/07 03:27:47;;;;;;;21.15;13.18;;;2.00;99.90;;;;;;4936455;29;20368;-42
2023/12/07 03:30:13;;;;;;;19.67;13.30;;;2.10;99.90;;;;;;4953567;29;20023;-41
2023/12/07 03:32:38;;;;;;;18.05;12.27;;;2.00;99.90;;;;;;4952999;28;20043;-42
2023/12/07 03:35:04;;;;;;;20.58;13.93;;;1.90;99.90;;;;;;4953661;28;20027;-43
2023/12/07 03:37:30;;;;;;;20.98;13.18;;;1.90;99.90;;;;;;4953738;28;20115;-43
2023/12/07 03:39:55;;;;;;;19.02;13.15;;;2.00;99.90;;;;;;4953367;29;20031;-44
2023/12/07 03:42:21;;;;;;;24.30;14.95;;;2.10;99.90;;;;;;4953094;28;20031;-43
2023/12/07 03:44:47;;;;;;;22.48;14.30;;;2.00;99.90;;;;;;4953686;29;20027;-44
2023/12/07 03:47:13;;;;;;;22.90;14.23;;;2.00;99.90;;;;;;4953470;28;20551;-42
2023/12/07 03:49:38;;;;;;;26.98;15.82;;;2.00;99.90;;;;;;4953302;29;20027;-44
2023/12/07 03:52:04;;;;;;;23.20;13.55;;;2.00;99.90;;;;;;4953090;29;20491;-45
2023/12/07 03:54:30;;;;;;;24.65;13.65;;;2.10;99.90;;;;;;4953242;28;20031;-42
2023/12/07 03:56:55;;;;;;;25.13;14.07;;;2.00;99.90;;;;;;4953467;28;20031;-42
2023/12/07 03:59:21;;;;;;;21.88;14.18;;;2.00;99.90;;;;;;4953181;29;20106;-43
2023/12/07 04:01:46;;;;;;;23.98;14.68;;;2.00;99.90;;;;;;4952916;28;20027;-42
2023/12/07 04:04:12;;;;;;;25.27;15.50;;;2.00;99.90;;;;;;4953023;29;20031;-44
2023/12/07 04:06:37;;;;;;;27.10;14.65;;;2.00;99.90;;;;;;4953126;29;20023;-44
2023/12/07 04:09:04;;;;;;;23.90;15.15;;;2.00;99.90;;;;;;4953028;28;20027;-46
2023/12/07 04:11:29;;;;;;;23.13;14.27;;;2.00;99.90;;;;;;4952730;29;20049;-44
2023/12/07 04:13:55;;;;;;;21.30;13.50;;;2.10;99.90;;;;;;4952915;29;20031;-39
2023/12/07 04:16:20;;;;;;;22.60;15.30;;;2.10;99.90;;;;;;4953000;29;20039;-43
2023/12/07 04:18:46;;;;;;;26.08;15.00;;;2.10;99.90;;;;;;4952846;29;20032;-44
2023/12/07 04:21:11;;;;;;;22.42;14.73;;;2.00;99.90;;;;;;4952621;28;20398;-45
2023/12/07 04:23:37;;;;;;;21.70;14.52;;;1.90;99.90;;;;;;4952868;29;20031;-47
2023/12/07 04:26:03;;;;;;;24.58;14.73;;;1.80;99.90;;;;;;4951619;28;20410;-46
2023/12/07 04:28:28;;;;;;;28.92;15.20;;;1.80;99.90;;;;;;4952938;28;20066;-44
2023/12/07 04:30:54;;;;;;;26.60;16.15;;;1.80;99.90;;;;;;4952695;29;20035;-43
2023/12/07 04:33:19;;;;;;;26.67;16.20;;;1.80;99.90;;;;;;4952360;28;20039;-43
2023/12/07 04:35:45;;;;;;;29.80;16.23;;;1.90;99.90;;;;;;4952644;29;20055;-42
2023/12/07 04:38:10;;;;;;;28.75;14.65;;;1.80;99.90;;;;;;4952581;29;20113;-43
2023/12/07 04:40:37;;;;;;;24.70;15.05;;;1.70;99.90;;;;;;4952543;29;20027;-41
2023/12/07 04:43:02;;;;;;;27.10;16.63;;;1.70;99.90;;;;;;4952608;28;20024;-43
2023/12/07 04:45:28;;;;;;;24.17;15.73;;;1.70;99.90;;;;;;4952666;29;20077;-47
2023/12/07 04:47:54;;;;;;;25.42;15.70;;;1.70;99.90;;;;;;4952338;29;20106;-51
2023/12/07 04:50:19;;;;;;;25.40;16.23;;;1.70;99.90;;;;;;4952311;29;20031;-42
2023/12/07 04:52:45;;;;;;;29.20;16.48;;;1.80;99.90;;;;;;4952103;28;20027;-49
2023/12/07 04:55:10;;;;;;;29.20;15.73;;;1.80;99.90;;;;;;4952481;28;20066;-44
2023/12/07 04:57:36;;;;;;;24.85;15.90;;;1.70;99.90;;;;;;4952365;29;20019;-44
2023/12/07 05:00:13;;;;;;;31.50;18.27;;;1.70;99.90;;;;;;4952589;28;20505;-48
2023/12/07 05:02:38;;;;;;;27.33;14.85;;;1.60;99.90;;;;;;4952058;29;20070;-46
2023/12/07 05:05:05;;;;;;;27.58;16.08;;;1.60;99.90;;;;;;4952244;29;20031;-44
2023/12/07 05:07:30;;;;;;;28.80;16.67;;;1.70;99.90;;;;;;4952319;29;20102;-45
2023/12/07 05:09:56;;;;;;;27.65;16.73;;;1.60;99.90;;;;;;4952176;29;20357;-43
2023/12/07 05:12:21;;;;;;;22.40;15.43;;;1.60;99.90;;;;;;4952100;29;20451;-44
2023/12/07 05:14:47;;;;;;;27.70;16.88;;;1.70;99.90;;;;;;4952060;29;20031;-45
2023/12/07 05:17:12;;;;;;;23.30;16.30;;;1.70;99.90;;;;;;4952014;29;20494;-45
2023/12/07 05:19:38;;;;;;;34.40;17.25;;;1.70;99.90;;;;;;4951843;29;20023;-43
2023/12/07 05:22:03;;;;;;;25.63;16.23;;;1.70;99.90;;;;;;4951444;29;20035;-43
2023/12/07 05:24:31;;;;;;;33.42;16.88;;;1.80;99.90;;;;;;4951768;29;20040;-42
2023/12/07 05:26:57;;;;;;;24.60;15.45;;;1.70;99.90;;;;;;4951908;28;20015;-43
2023/12/07 05:29:22;;;;;;;31.77;17.35;;;1.70;99.90;;;;;;4951802;28;20092;-48
2023/12/07 05:31:51;;;;;;;26.25;17.45;;;1.70;99.90;;;;;;4951689;29;20039;-44
2023/12/07 05:34:17;;;;;;;30.48;17.48;;;1.70;99.90;;;;;;4951587;28;20521;-40
2023/12/07 05:36:43;;;;;;;30.27;18.00;;;1.60;99.90;;;;;;4951529;28;20050;-40
2023/12/07 05:39:08;;;;;;;33.28;19.08;;;1.60;99.90;;;;;;4951362;29;20034;-43
2023/12/07 05:41:34;;;;;;;27.30;17.35;;;1.70;99.90;;;;;;4951247;29;20110;-43
2023/12/07 05:43:59;;;;;;;27.75;16.70;;;1.60;99.90;;;;;;4951457;29;20066;-46
2023/12/07 05:46:25;;;;;;;24.83;17.00;;;1.60;99.90;;;;;;4951565;29;20468;-42
2023/12/07 05:48:50;;;;;;;33.60;18.70;;;1.60;99.90;;;;;;4951466;29;20035;-43
2023/12/07 05:51:17;;;;;;;28.33;17.02;;;1.60;99.90;;;;;;4933870;29;20081;-40
2023/12/07 05:53:43;;;;;;;25.33;16.63;;;1.60;99.90;;;;;;4951301;28;20031;-45
2023/12/07 05:56:09;;;;;;;33.00;17.83;;;1.70;99.90;;;;;;4951354;29;20028;-40
2023/12/07 05:58:35;;;;;;;29.13;17.40;;;1.70;99.90;;;;;;4951242;28;20027;-43
2023/12/07 06:01:03;;;;;;;28.45;17.08;;;1.70;99.90;;;;;;4951244;28;20106;-43
2023/12/07 06:03:29;;;;;;;26.88;17.45;;;1.70;99.90;;;;;;4951070;29;20027;-42
2023/12/07 06:05:55;;;;;;;33.78;16.95;;;1.80;99.90;;;;;;4951220;29;20034;-43
2023/12/07 06:08:21;;;;;;;28.52;17.75;;;1.80;99.90;;;;;;4951393;29;20023;-43
2023/12/07 06:10:47;;;;;;;30.00;17.10;;;1.80;99.90;;;;;;4951152;28;20129;-44
2023/12/07 06:13:13;;;;;;;30.70;17.33;;;1.70;99.90;;;;;;4951049;28;20440;-43
2023/12/07 06:15:39;;;;;;;26.98;16.17;;;1.70;99.90;;;;;;4951239;29;20031;-44
2023/12/07 06:18:05;;;;;;;25.25;16.60;;;1.70;99.90;;;;;;4933785;29;20039;-43
2023/12/07 06:20:31;;;;;;;23.52;14.68;;;1.70;99.90;;;;;;4950929;28;20023;-38
2023/12/07 06:22:57;;;;;;;26.42;15.73;;;1.70;99.90;;;;;;4972978;22;20379;-52
2023/12/07 06:25:23;;;;;;;29.05;16.08;;;1.70;99.90;;;;;;4987203;28;20041;-49
2023/12/07 06:27:49;;;;;;;26.85;16.50;;;1.70;99.90;;;;;;4986757;28;20106;-49
2023/12/07 06:30:14;;;;;;;24.20;14.68;;;1.80;99.90;;;;;;4970808;28;20090;-48
2023/12/07 06:32:40;;;;;;;26.52;15.60;;;1.80;99.90;;;;;;4961985;28;20482;-51
2023/12/07 06:35:06;;;;;;;24.38;15.73;;;1.80;99.90;;;;;;4951211;29;20031;-49
2023/12/07 06:37:31;;;;;;;28.08;14.43;;;1.70;99.90;;;;;;4951029;28;20066;-50
2023/12/07 06:39:58;;;;;;;25.20;14.98;;;1.80;99.90;;;;;;4951197;28;20514;-49
2023/12/07 06:42:24;;;;;;;25.60;15.05;;;1.80;99.90;;;;;;4951033;28;20024;-53
2023/12/07 06:44:49;;;;;;;23.25;14.55;;;1.80;99.90;;;;;;4933871;29;20027;-48
2023/12/07 06:47:15;;;;;;;20.60;14.10;;;1.70;99.90;;;;;;4951024;29;20598;-49
2023/12/07 06:49:41;;;;;;;23.77;14.32;;;1.70;99.90;;;;;;4950226;29;20100;-50
2023/12/07 06:52:07;;;;;;;22.88;14.82;;;1.70;99.90;;;;;;4950485;29;20027;-50
2023/12/07 06:54:33;;;;;;;23.67;15.13;;;1.60;99.90;;;;;;4950834;29;20027;-54
2023/12/07 06:56:58;;;;;;;27.20;16.00;;;1.60;99.90;;;;;;4933634;29;20032;-52
2023/12/07 06:59:24;;;;;;;27.08;15.32;;;1.60;99.90;;;;;;4933669;29;20035;-46
2023/12/07 07:01:49;;;;;;;22.63;14.25;;;1.60;99.90;;;;;;4950626;29;20110;-49
2023/12/07 07:04:16;;;;;;;19.45;13.25;;;1.50;99.90;;;;;;4950820;29;20040;-51
2023/12/07 07:06:42;;;;;;;24.77;14.82;;;1.50;99.90;;;;;;4950866;28;20020;-49
2023/12/07 07:09:07;;;;;;;27.80;15.48;;;1.60;99.90;;;;;;4950783;28;20035;-48
2023/12/07 07:11:34;;;;;;;28.52;14.90;;;1.60;99.90;;;;;;4950391;29;20051;-50
2023/12/07 07:13:59;;;;;;;20.00;13.90;;;1.60;99.90;;;;;;4950887;28;20027;-50
2023/12/07 07:16:25;;;;;;;26.17;13.85;;;1.60;99.90;;;;;;4950851;29;20046;-51
2023/12/07 07:18:50;;;;;;;21.88;14.43;;;1.60;99.90;;;;;;4950662;29;20032;-51
2023/12/07 07:21:16;;;;;;;25.27;14.98;;;1.60;99.90;;;;;;4950245;29;20221;-48
2023/12/07 07:23:41;;;;;;;24.27;16.10;;;1.60;99.90;;;;;;4950695;29;20397;-48
2023/12/07 07:26:08;;;;;;;24.13;15.18;;;1.60;99.90;;;;;;4933668;29;20027;-50
2023/12/07 07:28:34;;;;;;;25.17;15.52;;;1.70;99.90;;;;;;4950760;28;20506;-49
2023/12/07 07:31:00;;;;;;;25.92;16.55;;;1.70;99.90;;;;;;4933159;28;20031;-49
2023/12/07 07:33:25;;;;;;;26.15;16.50;;;1.80;99.90;;;;;;4950628;29;20038;-52
2023/12/07 07:35:51;;;;;;;22.33;13.88;;;1.80;99.90;;;;;;4950422;29;20027;-46
2023/12/07 07:38:16;;;;;;;27.30;15.85;;;1.90;99.90;;;;;;4950479;28;20513;-50
2023/12/07 07:40:42;;;;;;;30.35;16.85;;;2.00;99.90;;;;;;4950222;29;20394;-53
2023/12/07 07:43:07;;;;;;;25.30;15.82;;;1.90;99.90;;;;;;4950182;29;20435;-52
2023/12/07 07:45:34;;;;;;;23.88;14.20;;;1.90;99.90;;;;;;4933230;29;20024;-52
2023/12/07 07:48:00;;;;;;;23.13;15.70;;;1.90;99.90;;;;;;4933254;29;20495;-52
2023/12/07 07:50:25;;;;;;;23.77;16.38;;;1.90;99.90;;;;;;4950058;29;20045;-50
2023/12/07 07:52:51;;;;;;;27.27;17.75;;;2.10;99.90;;;;;;4950058;29;20019;-50
2023/12/07 07:55:17;;;;;;;30.00;17.02;;;2.10;99.90;;;;;;4950270;29;20055;-48
2023/12/07 07:57:43;;;;;;;31.60;18.58;;;2.20;99.90;;;;;;4950425;28;20027;-49
2023/12/07 08:00:09;;;;;;;31.95;18.60;;;2.20;99.90;;;;;;4950645;28;20031;-53
2023/12/07 08:02:36;;;;;;;32.15;18.92;;;2.30;99.90;;;;;;4953102;29;20027;-54
2023/12/07 08:05:02;;;;;;;37.05;21.80;;;2.30;99.90;;;;;;4935793;29;20475;-51
2023/12/07 08:07:28;;;;;;;40.17;21.05;;;2.30;99.90;;;;;;4953051;29;20038;-48
2023/12/07 08:09:53;;;;;;;32.20;20.67;;;2.30;99.90;;;;;;4952992;28;20449;-48
2023/12/07 08:12:19;;;;;;;29.50;19.38;;;2.30;99.90;;;;;;4952926;28;20027;-49
2023/12/07 08:14:45;;;;;;;24.63;16.30;;;2.30;99.90;;;;;;4953201;28;20062;-47
2023/12/07 08:17:12;;;;;;;34.88;19.30;;;2.30;99.90;;;;;;4953063;28;20031;-48
2023/12/07 08:19:40;;;;;;;33.90;19.08;;;2.40;99.90;;;;;;4952821;28;20039;-53
2023/12/07 08:22:05;;;;;;;27.63;18.23;;;2.20;99.90;;;;;;4953009;28;20030;-54
2023/12/07 08:24:31;;;;;;;30.73;18.38;;;2.10;99.90;;;;;;4953044;28;20028;-50
2023/12/07 08:26:56;;;;;;;32.97;18.58;;;2.20;99.90;;;;;;4953158;29;20031;-50
2023/12/07 08:29:22;;;;;;;35.17;18.10;;;2.20;99.90;;;;;;4935730;29;20027;-51
2023/12/07 08:31:47;;;;;;;39.17;23.05;;;2.20;99.90;;;;;;4952626;28;20034;-51
2023/12/07 08:34:14;;;;;;;34.67;22.08;;;2.30;99.90;;;;;;4952687;28;20031;-47
2023/12/07 08:36:39;;;;;;;34.42;19.80;;;2.40;99.90;;;;;;4952908;28;20028;-48
2023/12/07 08:39:05;;;;;;;25.65;16.45;;;2.50;99.90;;;;;;4935546;29;20516;-50
2023/12/07 08:41:33;;;;;;;29.80;16.85;;;2.60;99.90;;;;;;4952454;28;20463;-48
2023/12/07 08:43:59;;;;;;;26.38;17.48;;;2.70;99.90;;;;;;4952701;29;20039;-48
2023/12/07 08:46:25;;;;;;;25.80;16.90;;;2.90;99.90;;;;;;4953094;28;20023;-53
2023/12/07 08:48:50;;;;;;;23.48;16.10;;;3.40;99.90;;;;;;4952553;29;20029;-54
2023/12/07 08:51:16;;;;;;;27.05;14.88;;;4.10;99.90;;;;;;4951915;28;20039;-46
2023/12/07 08:53:41;;;;;;;27.75;15.43;;;4.80;99.90;;;;;;4953027;28;20038;-49
2023/12/07 08:56:07;;;;;;;22.23;13.43;;;5.30;99.90;;;;;;4956668;28;20109;-49
2023/12/07 08:58:33;;;;;;;20.73;12.05;;;5.30;99.90;;;;;;4959767;28;20104;-50
2023/12/07 09:00:58;;;;;;;19.65;12.70;;;5.40;99.90;;;;;;4953265;28;22116;-50
2023/12/07 09:03:31;;;;;;;18.20;12.60;;;5.60;99.90;;;;;;4963051;28;20042;-50
2023/12/07 09:05:57;;;;;;;21.98;13.23;;;5.80;99.90;;;;;;4952475;28;20030;-49
2023/12/07 09:08:22;;;;;;;18.83;11.90;;;5.40;99.90;;;;;;4955892;28;20027;-50
2023/12/07 09:10:50;;;;;;;22.60;13.70;;;4.90;99.90;;;;;;4951795;29;20059;-53
2023/12/07 09:13:17;;;;;;;23.67;14.20;;;4.50;99.90;;;;;;5010386;28;20033;-52
2023/12/07 09:15:42;;;;;;;20.65;13.48;;;4.10;99.90;;;;;;4969343;28;20050;-49
2023/12/07 09:18:08;;;;;;;23.30;14.20;;;3.40;99.90;;;;;;4961977;28;20419;-56
2023/12/07 09:20:33;;;;;;;23.65;14.00;;;3.30;99.90;;;;;;4951876;28;20494;-50
2023/12/07 09:22:59;;;;;;;23.90;14.98;;;3.00;99.90;;;;;;4954916;28;20026;-52
2023/12/07 09:25:27;;;;;;;23.33;14.70;;;2.90;99.90;;;;;;4968778;28;20035;-52
2023/12/07 09:27:53;;;;;;;25.00;14.00;;;2.80;99.90;;;;;;4971575;28;20015;-46
2023/12/07 09:30:19;;;;;;;45.90;16.75;;;2.70;99.90;;;;;;4953995;28;20027;-47
2023/12/07 09:32:44;;;;;;;32.58;16.20;;;2.70;99.90;;;;;;4953773;28;20114;-50
2023/12/07 09:35:19;;;;;;;87.40;18.08;;;2.60;99.90;;;;;;4971429;28;20109;-49
2023/12/07 09:37:49;;;;;;;123.10;17.60;;;2.70;99.90;;;;;;4971403;28;20389;-51
2023/12/07 09:40:19;;;;;;;50.80;15.82;;;2.60;99.90;;;;;;4970990;28;20285;-52
2023/12/07 09:42:46;;;;;;;79.40;13.80;;;2.40;99.90;;;;;;4970961;28;20482;-50
2023/12/07 09:45:12;;;;;;;74.38;15.27;;;2.20;99.90;;;;;;4971017;28;20034;-47
2023/12/07 09:47:39;;;;;;;40.97;14.30;;;2.10;99.90;;;;;;4970902;28;20023;-49
2023/12/07 09:50:07;;;;;;;35.47;10.82;;;2.00;99.90;;;;;;4953604;28;20443;-52
2023/12/07 09:52:33;;;;;;;30.55;12.57;;;2.00;99.90;;;;;;4970751;28;20038;-51
2023/12/07 09:55:00;;;;;;;21.02;10.50;;;1.80;99.90;;;;;;4970954;28;20035;-53
2023/12/07 09:57:26;;;;;;;40.72;11.57;;;1.80;99.90;;;;;;4971243;28;20022;-48
2023/12/07 09:59:51;;;;;;;31.50;12.52;;;1.80;99.90;;;;;;4970833;28;20035;-49
2023/12/07 10:02:17;;;;;;;22.48;11.77;;;1.90;99.90;;;;;;4970488;28;20030;-53
2023/12/07 10:04:43;;;;;;;17.73;11.63;;;1.70;99.90;;;;;;4971248;28;20027;-48
2023/12/07 10:07:09;;;;;;;28.30;12.75;;;1.70;99.90;;;;;;4970938;28;20543;-50
2023/12/07 10:09:39;;;;;;;34.85;12.73;;;1.80;99.90;;;;;;4971330;28;20027;-51
2023/12/07 10:12:05;;;;;;;37.47;12.75;;;1.90;99.90;;;;;;4970923;28;20027;-50
2023/12/07 10:14:31;;;;;;;39.78;13.55;;;2.00;99.90;;;;;;4971026;28;20406;-54
2023/12/07 10:16:57;;;;;;;20.35;12.23;;;2.10;99.90;;;;;;4970403;28;20031;-50
2023/12/07 10:19:23;;;;;;;30.85;13.02;;;2.10;99.90;;;;;;4970742;28;20071;-52
2023/12/07 10:21:52;;;;;;;32.83;12.85;;;2.10;99.90;;;;;;4970367;28;20065;-49
2023/12/07 10:24:19;;;;;;;29.08;14.88;;;2.30;99.90;;;;;;4968852;28;20466;-53
2023/12/07 10:26:46;;;;;;;22.00;12.88;;;;;;;;;;4961759;28;20031;-54
2023/12/07 10:29:12;;;;;;;26.50;13.40;;;2.70;99.90;;;;;;4958063;28;20088;-50
2023/12/07 10:31:37;;;;;;;26.40;14.65;;;2.10;99.90;;;;;;4960585;28;20027;-49
2023/12/07 10:34:04;;;;;;;32.50;15.98;;;2.30;99.90;;;;;;4960303;28;20455;-46
2023/12/07 10:36:30;;;;;;;44.13;15.00;;;2.20;99.90;;;;;;4952878;28;20106;-52
2023/12/07 10:38:56;;;;;;;25.70;15.05;;;2.20;99.90;;;;;;4958893;28;20122;-50
2023/12/07 10:41:23;;;;;;;33.30;18.65;;;2.20;99.90;;;;;;4969568;28;20031;-51
2023/12/07 10:43:53;;;;;;;32.45;17.67;;;2.50;99.90;;;;;;4965524;28;20533;-49
2023/12/07 10:46:22;;;;;;;33.38;17.52;;;2.60;99.90;;;;;;4957100;28;20031;-44
2023/12/07 10:48:51;;;;;;;35.05;18.60;;;2.50;99.90;;;;;;4942133;29;20042;-48
2023/12/07 10:51:37;;;;;;;34.08;18.65;;;2.50;99.90;;;;;;4964523;28;20031;-49
2023/12/07 10:54:04;;;;;;;35.67;19.13;;;2.60;99.90;;;;;;4954598;28;20031;-50
2023/12/07 10:56:42;;;;;;;35.72;19.65;;;2.60;99.90;;;;;;4962015;28;20371;-48
2023/12/07 10:59:11;;;;;;;34.20;19.08;;;2.80;99.90;;;;;;4958932;28;20436;-49
2023/12/07 11:01:38;;;;;;;32.70;19.25;;;2.80;99.90;;;;;;4965304;28;20049;-49
2023/12/07 11:04:05;;;;;;;36.55;19.92;;;2.80;99.90;;;;;;4953426;28;20165;-48
2023/12/07 11:06:32;;;;;;;35.30;19.50;;;2.80;99.90;;;;;;4959624;28;20098;-55
2023/12/07 11:09:01;;;;;;;36.38;20.90;;;2.80;99.90;;;;;;4950502;29;20031;-55
2023/12/07 11:11:47;;;;;;;32.83;20.38;;;2.80;99.90;;;;;;4958690;28;20042;-48
2023/12/07 11:14:16;;;;;;;36.90;21.20;;;2.80;99.90;;;;;;4958771;28;20037;-48
2023/12/07 11:16:46;;;;;;;39.28;22.05;;;2.80;99.90;;;;;;4969790;28;20042;-50
2023/12/07 11:19:32;;;;;;;37.42;19.10;;;2.60;99.90;;;;;;4988496;28;20381;-54
2023/12/07 11:22:01;;;;;;;40.13;21.02;;;2.80;99.90;;;;;;4974553;28;20140;-51
2023/12/07 11:24:26;;;;;;;42.15;22.83;;;2.60;99.90;;;;;;4963586;28;20031;-49
2023/12/07 11:26:53;;;;;;;36.38;20.77;;;2.60;99.90;;;;;;4945480;28;20027;-48
2023/12/07 11:29:27;;;;;;;34.38;21.40;;;2.70;99.90;;;;;;4984203;28;20029;-52
2023/12/07 11:32:06;;;;;;;41.17;22.02;;;2.60;99.90;;;;;;4962465;28;20549;-49
2023/12/07 11:34:39;;;;;;;89.93;45.90;;;2.70;99.90;;;;;;4953805;28;20031;-49
2023/12/07 11:37:07;;;;;;;53.33;27.58;;;2.70;99.90;;;;;;4961195;28;20023;-48
2023/12/07 11:39:36;;;;;;;49.88;25.45;;;2.70;99.90;;;;;;4941957;28;20063;-52
2023/12/07 11:42:15;;;;;;;50.70;26.00;;;2.70;99.90;;;;;;4978118;28;20030;-56
2023/12/07 11:44:44;;;;;;;45.78;24.92;;;2.80;99.90;;;;;;4975038;28;20018;-55
2023/12/07 11:47:10;;;;;;;52.35;25.38;;;2.90;99.90;;;;;;4961131;28;20019;-56
2023/12/07 11:49:36;;;;;;;60.25;24.50;;;3.00;99.90;;;;;;4971457;28;20468;-56
2023/12/07 11:52:15;;;;;;;58.78;25.08;;;2.90;99.90;;;;;;5014502;28;20021;-50
2023/12/07 11:54:44;;;;;;;52.88;23.92;;;2.90;99.90;;;;;;4950564;28;20129;-56
2023/12/07 11:57:10;;;;;;;65.68;25.48;;;2.90;99.90;;;;;;4959797;28;20421;-53
2023/12/07 11:59:36;;;;;;;62.63;23.98;;;2.80;99.90;;;;;;4942356;28;20043;-56
2023/12/07 12:02:04;;;;;;;71.93;23.92;;;2.80;99.90;;;;;;4954922;28;20398;-56
2023/12/07 12:04:30;;;;;;;57.25;24.30;;;2.70;99.90;;;;;;4947238;29;20027;-51
2023/12/07 12:06:55;;;;;;;67.68;25.00;;;2.60;99.90;;;;;;4954503;28;20075;-53
2023/12/07 12:09:23;;;;;;;63.15;24.83;;;2.50;99.90;;;;;;4943829;29;20054;-55
2023/12/07 12:11:49;;;;;;;62.17;23.05;;;2.40;99.90;;;;;;4951619;28;20035;-54
2023/12/07 12:14:19;;;;;;;74.13;24.35;;;2.30;99.90;;;;;;4969346;28;20103;-52
2023/12/07 12:16:50;;;;;;;51.03;23.98;;;2.30;99.90;;;;;;4953084;29;20184;-51
2023/12/07 12:19:16;;;;;;;75.22;24.83;;;2.30;99.90;;;;;;4935803;29;20034;-50
2023/12/07 12:21:43;;;;;;;63.25;25.13;;;2.30;99.90;;;;;;4960975;28;20078;-52
2023/12/07 12:24:09;;;;;;;66.07;24.45;;;2.30;99.90;;;;;;4956418;28;20164;-49
2023/12/07 12:26:37;;;;;;;59.17;23.70;;;2.20;99.90;;;;;;4940564;28;20058;-51
2023/12/07 12:29:03;;;;;;;53.70;24.02;;;2.20;99.90;;;;;;4944873;28;20062;-51
2023/12/07 12:31:29;;;;;;;65.63;26.23;;;2.20;99.90;;;;;;4966547;28;20401;-57
2023/12/07 12:33:55;;;;;;;64.97;24.27;;;2.30;99.90;;;;;;4960042;28;20031;-52